createdAt,value
2023-02-22T00:01:50.878Z,5.21
2023-02-22T00:03:30.108Z,5.21
2023-02-22T00:04:20.980Z,4.85
2023-02-22T00:06:48.930Z,4.39
2023-02-22T00:08:29.959Z,4.39
2023-02-22T00:09:20.370Z,5.35
2023-02-22T00:11:48.624Z,5.01
2023-02-22T00:13:29.992Z,5.01
2023-02-22T00:14:15.601Z,4.51
2023-02-22T00:16:42.080Z,4.59
2023-02-22T00:18:29.959Z,4.59
2023-02-22T00:19:08.656Z,5.42
2023-02-22T00:21:35.122Z,5.37
2023-02-22T00:23:30.084Z,5.37
2023-02-22T00:24:16.914Z,5.38
2023-02-22T00:26:43.255Z,4.59
2023-02-22T00:28:30.050Z,4.59
2023-02-22T00:29:09.614Z,5.18
2023-02-22T00:31:39.402Z,4.81
2023-02-22T00:33:29.979Z,4.81
2023-02-22T00:34:05.849Z,5.10
2023-02-22T00:36:32.242Z,5.10
2023-02-22T00:38:29.982Z,5.10
2023-02-22T00:38:58.664Z,5.45
2023-02-22T00:41:25.268Z,5.24
2023-02-22T00:43:29.992Z,5.24
2023-02-22T00:43:53.778Z,5.40
2023-02-22T00:46:20.123Z,4.85
2023-02-22T00:48:29.950Z,4.85
2023-02-22T00:48:46.528Z,4.09
2023-02-22T00:51:13.035Z,4.82
2023-02-22T00:53:29.981Z,4.82
2023-02-22T00:53:39.463Z,5.35
2023-02-22T00:56:06.819Z,5.09
2023-02-22T00:58:29.986Z,5.09
2023-02-22T00:58:33.720Z,4.96
2023-02-22T01:01:00.174Z,4.59
2023-02-22T01:03:26.592Z,4.77
2023-02-22T01:03:29.991Z,4.77
2023-02-22T01:05:53.011Z,4.94
2023-02-22T01:08:19.495Z,4.26
2023-02-22T01:08:29.961Z,4.26
2023-02-22T01:10:46.798Z,4.19
2023-02-22T01:13:13.714Z,4.98
2023-02-22T01:13:29.990Z,4.98
2023-02-22T01:15:43.150Z,5.03
2023-02-22T01:18:09.695Z,4.86
2023-02-22T01:18:30.021Z,4.86
2023-02-22T01:20:36.343Z,4.45
2023-02-22T01:23:06.492Z,4.13
2023-02-22T01:23:30.004Z,4.13
2023-02-22T01:25:33.614Z,4.47
2023-02-22T01:28:01.900Z,4.95
2023-02-22T01:28:30.001Z,4.95
2023-02-22T01:30:32.799Z,5.08
2023-02-22T01:33:01.031Z,5.07
2023-02-22T01:33:29.994Z,5.07
2023-02-22T01:35:30.473Z,4.34
2023-02-22T01:37:58.251Z,4.24
2023-02-22T01:38:29.977Z,4.24
2023-02-22T01:40:29.599Z,4.96
2023-02-22T01:43:00.526Z,4.72
2023-02-22T01:43:29.991Z,4.72
2023-02-22T01:45:54.887Z,5.11
2023-02-22T01:48:33.172Z,5.12
2023-02-22T01:48:33.382Z,5.12
2023-02-22T01:51:10.588Z,4.19
2023-02-22T01:53:29.991Z,4.19
2023-02-22T01:53:42.984Z,4.82
2023-02-22T01:56:10.582Z,5.23
2023-02-22T01:58:30.027Z,5.23
2023-02-22T01:58:41.816Z,4.85
2023-02-22T02:01:09.468Z,5.26
2023-02-22T02:03:30.032Z,5.26
2023-02-22T02:03:39.905Z,4.70
2023-02-22T02:06:11.868Z,5.21
2023-02-22T02:08:29.978Z,5.21
2023-02-22T02:09:06.235Z,5.24
2023-02-22T02:11:33.528Z,5.26
2023-02-22T02:13:29.977Z,5.26
2023-02-22T02:14:00.278Z,4.18
2023-02-22T02:16:42.308Z,5.27
2023-02-22T02:18:29.985Z,5.27
2023-02-22T02:19:47.770Z,5.29
2023-02-22T02:22:36.833Z,5.32
2023-02-22T02:23:29.983Z,5.32
2023-02-22T02:25:28.445Z,5.26
2023-02-22T02:28:10.161Z,5.31
2023-02-22T02:28:30.009Z,5.31
2023-02-22T02:31:06.246Z,5.30
2023-02-22T02:33:29.964Z,5.30
2023-02-22T02:33:48.180Z,5.12
2023-02-22T02:36:22.691Z,4.62
2023-02-22T02:38:29.982Z,4.62
2023-02-22T02:38:57.995Z,5.11
2023-02-22T02:41:29.821Z,4.63
2023-02-22T02:43:29.978Z,4.63
2023-02-22T02:44:15.843Z,5.13
2023-02-22T02:46:56.167Z,4.91
2023-02-22T02:48:29.972Z,4.91
2023-02-22T02:49:29.122Z,3.98
2023-02-22T02:51:57.000Z,4.86
2023-02-22T02:53:29.981Z,4.86
2023-02-22T02:54:24.697Z,4.79
2023-02-22T02:56:51.276Z,4.57
2023-02-22T02:58:29.993Z,4.57
2023-02-22T02:59:26.379Z,4.74
2023-02-22T03:02:34.024Z,4.72
2023-02-22T03:03:29.975Z,4.72
2023-02-22T03:05:38.703Z,4.70
2023-02-22T03:08:14.618Z,4.48
2023-02-22T03:08:30.011Z,4.48
2023-02-22T03:11:14.934Z,4.71
2023-02-22T03:13:30.022Z,4.71
2023-02-22T03:13:56.599Z,4.77
2023-02-22T03:16:45.330Z,4.76
2023-02-22T03:18:29.996Z,4.76
2023-02-22T03:19:26.235Z,4.64
2023-02-22T03:21:55.277Z,4.78
2023-02-22T03:23:30.054Z,4.78
2023-02-22T03:24:28.303Z,4.09
2023-02-22T03:27:09.289Z,4.84
2023-02-22T03:28:30.009Z,4.84
2023-02-22T03:29:39.570Z,4.32
2023-02-22T03:32:11.806Z,4.90
2023-02-22T03:33:29.986Z,4.90
2023-02-22T03:34:42.867Z,4.93
2023-02-22T03:37:19.141Z,4.82
2023-02-22T03:38:29.996Z,4.82
2023-02-22T03:39:49.551Z,5.06
2023-02-22T03:42:23.974Z,3.99
2023-02-22T03:43:30.017Z,3.99
2023-02-22T03:44:53.066Z,4.80
2023-02-22T03:47:28.429Z,5.06
2023-02-22T03:48:29.995Z,5.06
2023-02-22T03:50:06.868Z,5.25
2023-02-22T03:52:34.970Z,5.05
2023-02-22T03:53:29.970Z,5.05
2023-02-22T03:55:02.648Z,5.26
2023-02-22T03:57:34.250Z,5.29
2023-02-22T03:58:30.061Z,5.29
2023-02-22T04:00:00.680Z,4.50
2023-02-22T04:02:27.107Z,4.75
2023-02-22T04:03:30.049Z,4.75
2023-02-22T04:04:53.674Z,4.85
2023-02-22T04:07:20.040Z,5.12
2023-02-22T04:08:30.051Z,5.12
2023-02-22T04:09:48.706Z,5.46
2023-02-22T04:12:15.208Z,5.30
2023-02-22T04:13:30.076Z,5.30
2023-02-22T04:14:41.656Z,5.34
2023-02-22T04:17:08.106Z,5.49
2023-02-22T04:18:30.083Z,5.49
2023-02-22T04:19:34.966Z,5.38
2023-02-22T04:22:01.361Z,5.17
2023-02-22T04:23:30.055Z,5.17
2023-02-22T04:24:30.439Z,5.55
2023-02-22T04:26:56.942Z,5.02
2023-02-22T04:28:30.055Z,5.02
2023-02-22T04:29:23.284Z,5.03
2023-02-22T04:31:50.372Z,5.53
2023-02-22T04:33:30.089Z,5.53
2023-02-22T04:34:16.879Z,5.50
2023-02-22T04:36:44.809Z,5.33
2023-02-22T04:38:30.063Z,5.33
2023-02-22T04:39:11.299Z,5.48
2023-02-22T04:41:37.693Z,4.98
2023-02-22T04:43:30.073Z,4.98
2023-02-22T04:44:04.136Z,5.45
2023-02-22T04:46:31.368Z,3.91
2023-02-22T04:48:30.057Z,3.91
2023-02-22T04:48:57.892Z,5.50
2023-02-22T04:51:24.922Z,5.47
2023-02-22T04:53:30.116Z,5.47
2023-02-22T04:53:51.628Z,5.51
2023-02-22T04:56:18.919Z,3.88
2023-02-22T04:58:30.082Z,3.88
2023-02-22T04:58:45.356Z,5.14
2023-02-22T05:01:11.929Z,5.06
2023-02-22T05:03:30.073Z,5.06
2023-02-22T05:03:38.839Z,5.52
2023-02-22T05:06:05.705Z,5.37
2023-02-22T05:08:30.051Z,5.37
2023-02-22T05:08:32.133Z,4.89
2023-02-22T05:10:58.481Z,4.58
2023-02-22T05:13:24.859Z,5.34
2023-02-22T05:13:30.083Z,5.34
2023-02-22T05:15:51.470Z,4.72
2023-02-22T05:18:17.920Z,5.29
2023-02-22T05:18:30.071Z,5.29
2023-02-22T05:20:44.321Z,4.51
2023-02-22T05:23:10.917Z,4.80
2023-02-22T05:23:30.083Z,4.80
2023-02-22T05:25:37.344Z,4.29
2023-02-22T05:28:10.666Z,4.99
2023-02-22T05:28:30.084Z,4.99
2023-02-22T05:30:39.749Z,5.26
2023-02-22T05:33:07.381Z,5.30
2023-02-22T05:33:30.112Z,5.30
2023-02-22T05:35:33.904Z,5.30
2023-02-22T05:38:03.246Z,5.09
2023-02-22T05:38:30.073Z,5.09
2023-02-22T05:40:30.563Z,5.32
2023-02-22T05:42:57.578Z,5.34
2023-02-22T05:43:30.091Z,5.34
2023-02-22T05:45:26.664Z,5.15
2023-02-22T05:47:53.654Z,5.23
2023-02-22T05:48:30.098Z,5.23
2023-02-22T05:50:20.737Z,4.44
2023-02-22T05:52:51.199Z,5.03
2023-02-22T05:53:30.077Z,5.03
2023-02-22T05:55:20.104Z,4.99
2023-02-22T05:57:47.224Z,5.30
2023-02-22T05:58:30.102Z,5.30
2023-02-22T06:00:20.299Z,5.25
2023-02-22T06:02:46.661Z,4.74
2023-02-22T06:03:30.096Z,4.74
2023-02-22T06:05:13.917Z,4.56
2023-02-22T06:07:40.410Z,4.91
2023-02-22T06:08:30.141Z,4.91
2023-02-22T06:10:06.901Z,4.72
2023-02-22T06:12:33.329Z,4.78
2023-02-22T06:13:30.116Z,4.78
2023-02-22T06:14:59.747Z,5.06
2023-02-22T06:17:28.437Z,5.11
2023-02-22T06:18:30.176Z,5.11
2023-02-22T06:19:54.767Z,4.49
2023-02-22T06:22:21.325Z,4.90
2023-02-22T06:23:30.112Z,4.90
2023-02-22T06:24:47.684Z,4.85
2023-02-22T06:27:14.026Z,4.14
2023-02-22T06:28:30.160Z,4.14
2023-02-22T06:29:45.559Z,5.18
2023-02-22T06:32:12.137Z,5.16
2023-02-22T06:33:30.125Z,5.16
2023-02-22T06:34:43.636Z,4.60
2023-02-22T06:37:10.117Z,4.96
2023-02-22T06:38:30.080Z,4.96
2023-02-22T06:39:36.665Z,3.39
2023-02-22T06:42:03.535Z,4.80
2023-02-22T06:43:30.115Z,4.80
2023-02-22T06:44:30.015Z,5.11
2023-02-22T06:46:59.651Z,4.46
2023-02-22T06:48:30.094Z,4.46
2023-02-22T06:49:27.347Z,5.06
2023-02-22T06:51:54.784Z,3.60
2023-02-22T06:53:30.111Z,3.60
2023-02-22T06:54:22.580Z,4.74
2023-02-22T06:56:49.458Z,4.10
2023-02-22T06:58:30.079Z,4.10
2023-02-22T06:59:16.733Z,4.31
2023-02-22T07:01:43.491Z,5.05
2023-02-22T07:03:30.189Z,5.05
2023-02-22T07:04:09.993Z,4.93
2023-02-22T07:06:36.453Z,4.91
2023-02-22T07:08:30.086Z,4.91
2023-02-22T07:09:03.570Z,5.07
2023-02-22T07:11:30.033Z,4.91
2023-02-22T07:13:30.136Z,4.91
2023-02-22T07:13:56.443Z,4.59
2023-02-22T07:16:22.866Z,3.30
2023-02-22T07:18:30.998Z,3.30
2023-02-22T07:18:49.296Z,5.15
2023-02-22T07:21:15.927Z,4.76
2023-02-22T07:23:30.137Z,4.76
2023-02-22T07:23:42.391Z,4.96
2023-02-22T07:26:08.756Z,5.07
2023-02-22T07:28:30.196Z,5.07
2023-02-22T07:28:35.152Z,4.84
2023-02-22T07:31:01.885Z,4.37
2023-02-22T07:33:28.334Z,4.83
2023-02-22T07:33:30.150Z,4.83
2023-02-22T07:35:54.881Z,4.98
2023-02-22T07:38:21.381Z,5.14
2023-02-22T07:38:30.094Z,5.14
2023-02-22T07:40:48.042Z,5.37
2023-02-22T07:43:21.610Z,5.45
2023-02-22T07:43:30.108Z,5.45
2023-02-22T07:45:50.502Z,5.61
2023-02-22T07:48:18.081Z,5.05
2023-02-22T07:48:30.115Z,5.05
2023-02-22T07:50:45.129Z,5.77
2023-02-22T07:53:19.263Z,5.84
2023-02-22T07:53:30.291Z,5.84
2023-02-22T07:55:45.922Z,5.68
2023-02-22T07:58:15.112Z,5.46
2023-02-22T07:58:30.159Z,5.46
2023-02-22T08:00:43.939Z,6.03
2023-02-22T08:03:13.208Z,5.95
2023-02-22T08:03:30.200Z,5.95
2023-02-22T08:05:41.443Z,5.88
2023-02-22T08:08:08.407Z,6.52
2023-02-22T08:08:30.145Z,6.52
2023-02-22T08:10:35.562Z,6.56
2023-02-22T08:13:03.116Z,6.56
2023-02-22T08:13:30.103Z,6.56
2023-02-22T08:15:35.075Z,6.70
2023-02-22T08:18:03.571Z,5.68
2023-02-22T08:18:30.128Z,5.68
2023-02-22T08:20:31.083Z,6.85
2023-02-22T08:22:58.407Z,6.62
2023-02-22T08:23:31.183Z,6.62
2023-02-22T08:25:27.889Z,6.04
2023-02-22T08:27:59.806Z,7.25
2023-02-22T08:28:30.268Z,7.25
2023-02-22T08:30:26.931Z,7.18
2023-02-22T08:32:53.875Z,7.11
2023-02-22T08:33:30.212Z,7.11
2023-02-22T08:35:21.656Z,7.39
2023-02-22T08:37:53.423Z,6.34
2023-02-22T08:38:30.147Z,6.34
2023-02-22T08:40:23.093Z,6.96
2023-02-22T08:42:49.932Z,7.04
2023-02-22T08:43:30.137Z,7.04
2023-02-22T08:45:17.258Z,7.75
2023-02-22T08:47:44.108Z,7.80
2023-02-22T08:48:30.141Z,7.80
2023-02-22T08:50:17.788Z,7.58
2023-02-22T08:52:44.197Z,7.95
2023-02-22T08:53:30.125Z,7.95
2023-02-22T08:55:10.861Z,8.00
2023-02-22T08:57:37.278Z,7.12
2023-02-22T08:58:30.162Z,7.12
2023-02-22T09:00:05.377Z,7.87
2023-02-22T09:02:31.804Z,7.91
2023-02-22T09:03:30.160Z,7.91
2023-02-22T09:04:58.201Z,8.38
2023-02-22T09:07:24.594Z,8.43
2023-02-22T09:08:30.164Z,8.43
2023-02-22T09:09:51.051Z,8.60
2023-02-22T09:12:17.528Z,8.64
2023-02-22T09:13:30.117Z,8.64
2023-02-22T09:14:43.919Z,8.91
2023-02-22T09:17:10.402Z,8.95
2023-02-22T09:18:42.374Z,8.95
2023-02-22T09:19:36.820Z,9.04
2023-02-22T09:22:03.229Z,9.10
2023-02-22T09:23:30.138Z,9.10
2023-02-22T09:24:29.666Z,8.86
2023-02-22T09:26:56.361Z,8.45
2023-02-22T09:28:30.239Z,8.45
2023-02-22T09:29:25.098Z,9.38
2023-02-22T09:31:54.012Z,8.63
2023-02-22T09:33:30.204Z,8.63
2023-02-22T09:34:22.746Z,9.12
2023-02-22T09:36:51.864Z,9.16
2023-02-22T09:38:30.148Z,9.16
2023-02-22T09:39:18.424Z,9.60
2023-02-22T09:41:52.309Z,9.69
2023-02-22T09:43:30.122Z,9.69
2023-02-22T09:44:37.892Z,9.10
2023-02-22T09:47:04.914Z,9.68
2023-02-22T09:48:30.144Z,9.68
2023-02-22T09:49:38.998Z,9.81
2023-02-22T09:52:13.916Z,9.75
2023-02-22T09:53:30.180Z,9.75
2023-02-22T09:54:52.776Z,10.10
2023-02-22T09:57:28.735Z,9.84
2023-02-22T09:58:30.154Z,9.84
2023-02-22T10:00:16.582Z,10.38
2023-02-22T10:03:11.278Z,10.22
2023-02-22T10:03:30.266Z,10.22
2023-02-22T10:05:41.748Z,10.57
2023-02-22T10:08:14.314Z,10.41
2023-02-22T10:08:31.333Z,10.41
2023-02-22T10:10:48.885Z,10.33
2023-02-22T10:14:06.191Z,10.36
2023-02-22T10:14:06.375Z,10.36
2023-02-22T10:16:46.687Z,10.37
2023-02-22T10:18:30.150Z,10.37
2023-02-22T10:19:32.445Z,10.32
2023-02-22T10:22:16.895Z,10.43
2023-02-22T10:23:30.230Z,10.43
2023-02-22T10:24:57.009Z,10.24
2023-02-22T10:27:54.494Z,9.53
2023-02-22T10:28:30.139Z,9.53
2023-02-22T10:30:29.757Z,10.65
2023-02-22T10:33:12.204Z,10.73
2023-02-22T10:33:30.148Z,10.73
2023-02-22T10:35:41.158Z,10.77
2023-02-22T10:38:20.432Z,11.14
2023-02-22T10:38:30.167Z,11.14
2023-02-22T10:40:54.636Z,11.28
2023-02-22T10:43:21.716Z,11.60
2023-02-22T10:43:30.201Z,11.60
2023-02-22T10:45:48.315Z,11.70
2023-02-22T10:48:18.529Z,12.01
2023-02-22T10:48:30.236Z,12.01
2023-02-22T10:50:46.804Z,10.97
2023-02-22T10:53:15.377Z,12.15
2023-02-22T10:53:30.155Z,12.15
2023-02-22T10:56:09.578Z,12.21
2023-02-22T10:58:30.116Z,12.21
2023-02-22T10:58:41.898Z,12.17
2023-02-22T11:01:24.332Z,12.23
2023-02-22T11:03:30.128Z,12.23
2023-02-22T11:04:04.500Z,12.27
2023-02-22T11:06:32.963Z,11.94
2023-02-22T11:08:30.166Z,11.94
2023-02-22T11:09:15.592Z,12.66
2023-02-22T11:11:46.969Z,12.67
2023-02-22T11:13:30.180Z,12.67
2023-02-22T11:14:26.375Z,12.50
2023-02-22T11:16:56.999Z,12.40
2023-02-22T11:18:30.140Z,12.40
2023-02-22T11:19:28.848Z,12.44
2023-02-22T11:22:22.303Z,12.21
2023-02-22T11:23:30.176Z,12.21
2023-02-22T11:25:02.212Z,12.66
2023-02-22T11:27:38.054Z,12.22
2023-02-22T11:28:30.179Z,12.22
2023-02-22T11:30:35.074Z,12.31
2023-02-22T11:33:23.535Z,12.24
2023-02-22T11:33:30.133Z,12.24
2023-02-22T11:36:02.388Z,12.74
2023-02-22T11:38:33.701Z,12.53
2023-02-22T11:38:33.881Z,12.53
2023-02-22T11:41:06.334Z,13.27
2023-02-22T11:43:30.161Z,13.27
2023-02-22T11:43:32.735Z,13.23
2023-02-22T11:46:04.870Z,13.38
2023-02-22T11:48:36.482Z,13.34
2023-02-22T11:48:36.682Z,13.34
2023-02-22T11:51:17.170Z,13.59
2023-02-22T11:53:30.145Z,13.59
2023-02-22T11:54:01.458Z,13.51
2023-02-22T11:56:42.970Z,13.72
2023-02-22T11:58:30.119Z,13.72
2023-02-22T11:59:30.482Z,13.66
2023-02-22T12:02:18.454Z,13.74
2023-02-22T12:03:30.254Z,13.74
2023-02-22T12:04:44.823Z,13.94
2023-02-22T12:07:26.004Z,13.56
2023-02-22T12:08:30.157Z,13.56
2023-02-22T12:10:11.615Z,13.93
2023-02-22T12:12:57.872Z,13.52
2023-02-22T12:13:30.159Z,13.52
2023-02-22T12:15:50.077Z,13.75
2023-02-22T12:18:22.090Z,13.79
2023-02-22T12:18:30.149Z,13.79
2023-02-22T12:20:57.230Z,13.88
2023-02-22T12:23:50.746Z,14.09
2023-02-22T12:23:50.971Z,14.09
2023-02-22T12:26:28.181Z,14.23
2023-02-22T12:28:30.159Z,14.23
2023-02-22T12:29:25.780Z,14.14
2023-02-22T12:32:00.433Z,13.42
2023-02-22T12:33:30.234Z,13.42
2023-02-22T12:34:27.288Z,14.33
2023-02-22T12:37:01.456Z,14.32
2023-02-22T12:38:30.170Z,14.32
2023-02-22T12:39:52.886Z,14.27
2023-02-22T12:42:34.064Z,14.39
2023-02-22T12:43:30.198Z,14.39
2023-02-22T12:45:08.266Z,14.33
2023-02-22T12:48:02.284Z,14.82
2023-02-22T12:48:30.164Z,14.82
2023-02-22T12:50:34.495Z,14.75
2023-02-22T12:53:15.026Z,14.98
2023-02-22T12:53:30.185Z,14.98
2023-02-22T12:55:50.558Z,14.76
2023-02-22T12:58:36.323Z,15.17
2023-02-22T12:58:36.457Z,15.17
2023-02-22T13:01:21.798Z,13.88
2023-02-22T13:03:30.153Z,13.88
2023-02-22T13:03:49.169Z,14.63
2023-02-22T13:06:47.459Z,14.48
2023-02-22T13:08:30.200Z,14.48
2023-02-22T13:09:33.179Z,15.10
2023-02-22T13:12:04.699Z,15.06
2023-02-22T13:13:30.188Z,15.06
2023-02-22T13:14:54.729Z,14.86
2023-02-22T13:17:27.179Z,15.35
2023-02-22T13:18:30.240Z,15.35
2023-02-22T13:20:30.630Z,15.38
2023-02-22T13:23:12.780Z,15.34
2023-02-22T13:23:30.187Z,15.34
2023-02-22T13:25:57.847Z,15.49
2023-02-22T13:29:02.720Z,15.50
2023-02-22T13:29:02.881Z,15.50
2023-02-22T13:31:40.946Z,14.91
2023-02-22T13:33:30.172Z,14.91
2023-02-22T13:34:44.916Z,14.60
2023-02-22T13:37:24.502Z,15.67
2023-02-22T13:38:30.198Z,15.67
2023-02-22T13:40:03.055Z,15.32
2023-02-22T13:42:43.841Z,15.81
2023-02-22T13:43:30.168Z,15.81
2023-02-22T13:45:29.210Z,15.80
2023-02-22T13:48:06.826Z,15.84
2023-02-22T13:48:30.174Z,15.84
2023-02-22T13:50:35.942Z,15.80
2023-02-22T13:53:07.831Z,15.89
2023-02-22T13:53:30.226Z,15.89
2023-02-22T13:55:36.575Z,15.66
2023-02-22T13:58:08.795Z,16.11
2023-02-22T13:58:30.195Z,16.11
2023-02-22T14:00:52.030Z,15.77
2023-02-22T14:03:42.713Z,15.40
2023-02-22T14:03:42.901Z,15.40
2023-02-22T14:06:38.306Z,15.94
2023-02-22T14:08:30.156Z,15.94
2023-02-22T14:09:09.141Z,15.83
2023-02-22T14:11:35.520Z,15.81
2023-02-22T14:13:30.203Z,15.81
2023-02-22T14:14:01.803Z,15.89
2023-02-22T14:16:33.932Z,15.64
2023-02-22T14:18:30.199Z,15.64
2023-02-22T14:19:09.658Z,15.62
2023-02-22T14:21:36.163Z,15.23
2023-02-22T14:23:30.182Z,15.23
2023-02-22T14:24:15.523Z,15.53
2023-02-22T14:27:04.050Z,15.19
2023-02-22T14:28:31.469Z,15.19
2023-02-22T14:29:31.155Z,15.18
2023-02-22T14:32:15.081Z,14.83
2023-02-22T14:33:30.190Z,14.83
2023-02-22T14:34:44.858Z,15.19
2023-02-22T14:37:25.219Z,15.18
2023-02-22T14:38:30.167Z,15.18
2023-02-22T14:40:12.657Z,14.42
2023-02-22T14:42:44.372Z,14.76
2023-02-22T14:43:30.178Z,14.76
2023-02-22T14:45:28.451Z,14.63
2023-02-22T14:48:14.197Z,14.86
2023-02-22T14:48:30.188Z,14.86
2023-02-22T14:50:40.503Z,14.96
2023-02-22T14:53:12.996Z,15.00
2023-02-22T14:53:30.251Z,15.00
2023-02-22T14:55:57.741Z,14.61
2023-02-22T14:58:47.004Z,14.78
2023-02-22T14:58:47.262Z,14.78
2023-02-22T15:01:33.845Z,14.20
2023-02-22T15:03:30.214Z,14.20
2023-02-22T15:04:27.509Z,14.65
2023-02-22T15:06:55.732Z,14.69
2023-02-22T15:08:30.212Z,14.69
2023-02-22T15:09:27.709Z,14.50
2023-02-22T15:12:04.947Z,14.66
2023-02-22T15:13:30.240Z,14.66
2023-02-22T15:14:37.392Z,14.58
2023-02-22T15:17:09.565Z,14.53
2023-02-22T15:18:30.219Z,14.53
2023-02-22T15:19:39.936Z,13.98
2023-02-22T15:22:17.930Z,13.92
2023-02-22T15:23:30.244Z,13.92
2023-02-22T15:24:47.283Z,13.77
2023-02-22T15:27:18.237Z,13.44
2023-02-22T15:28:30.206Z,13.44
2023-02-22T15:29:45.431Z,13.01
2023-02-22T15:32:49.910Z,14.01
2023-02-22T15:33:30.228Z,14.01
2023-02-22T15:35:23.930Z,13.71
2023-02-22T15:38:02.625Z,13.52
2023-02-22T15:38:30.249Z,13.52
2023-02-22T15:40:33.085Z,13.23
2023-02-22T15:43:17.799Z,12.83
2023-02-22T15:43:30.221Z,12.83
2023-02-22T15:45:45.974Z,13.35
2023-02-22T15:48:12.465Z,13.40
2023-02-22T15:48:30.220Z,13.40
2023-02-22T15:50:39.137Z,13.30
2023-02-22T15:53:25.908Z,12.94
2023-02-22T15:53:30.228Z,12.94
2023-02-22T15:55:59.171Z,12.41
2023-02-22T15:58:28.886Z,13.11
2023-02-22T15:58:30.247Z,13.11
2023-02-22T16:01:00.430Z,13.09
2023-02-22T16:03:29.442Z,12.43
2023-02-22T16:03:30.221Z,12.43
2023-02-22T16:05:57.209Z,13.05
2023-02-22T16:08:29.276Z,13.03
2023-02-22T16:08:30.329Z,13.03
2023-02-22T16:11:02.576Z,12.64
2023-02-22T16:13:33.169Z,12.83
2023-02-22T16:13:33.374Z,12.83
2023-02-22T16:16:22.234Z,12.67
2023-02-22T16:18:30.214Z,12.67
2023-02-22T16:18:49.612Z,12.33
2023-02-22T16:21:19.174Z,12.05
2023-02-22T16:23:30.200Z,12.05
2023-02-22T16:23:55.981Z,12.40
2023-02-22T16:26:33.559Z,11.43
2023-02-22T16:28:30.217Z,11.43
2023-02-22T16:29:06.022Z,11.81
2023-02-22T16:31:35.785Z,11.68
2023-02-22T16:33:30.227Z,11.68
2023-02-22T16:34:08.763Z,12.14
2023-02-22T16:36:46.932Z,12.09
2023-02-22T16:38:30.282Z,12.09
2023-02-22T16:39:23.796Z,12.03
2023-02-22T16:41:51.108Z,11.96
2023-02-22T16:43:30.289Z,11.96
2023-02-22T16:44:17.738Z,10.73
2023-02-22T16:46:44.151Z,11.91
2023-02-22T16:48:30.273Z,11.91
2023-02-22T16:49:12.054Z,11.89
2023-02-22T16:51:46.685Z,11.33
2023-02-22T16:53:30.231Z,11.33
2023-02-22T16:54:19.041Z,11.84
2023-02-22T16:56:45.460Z,11.47
2023-02-22T16:58:30.310Z,11.47
2023-02-22T16:59:15.154Z,11.73
2023-02-22T17:01:42.341Z,11.70
2023-02-22T17:03:30.262Z,11.70
2023-02-22T17:04:17.914Z,11.63
2023-02-22T17:06:44.764Z,11.21
2023-02-22T17:08:30.226Z,11.21
2023-02-22T17:09:15.464Z,11.61
2023-02-22T17:11:42.693Z,11.58
2023-02-22T17:13:30.326Z,11.58
2023-02-22T17:14:16.461Z,10.77
2023-02-22T17:16:47.106Z,11.02
2023-02-22T17:18:30.263Z,11.02
2023-02-22T17:19:19.221Z,11.44
2023-02-22T17:21:45.612Z,10.47
2023-02-22T17:23:30.268Z,10.47
2023-02-22T17:24:14.064Z,10.83
2023-02-22T17:26:41.295Z,11.26
2023-02-22T17:28:30.413Z,11.26
2023-02-22T17:29:07.692Z,11.21
2023-02-22T17:31:34.680Z,11.17
2023-02-22T17:33:30.335Z,11.17
2023-02-22T17:34:03.995Z,11.07
2023-02-22T17:36:32.291Z,10.80
2023-02-22T17:38:30.354Z,10.80
2023-02-22T17:38:59.559Z,10.49
2023-02-22T17:41:26.259Z,10.96
2023-02-22T17:43:30.255Z,10.96
2023-02-22T17:43:54.240Z,10.61
2023-02-22T17:46:21.011Z,10.49
2023-02-22T17:48:30.261Z,10.49
2023-02-22T17:48:50.272Z,10.82
2023-02-22T17:51:17.290Z,10.40
2023-02-22T17:53:30.294Z,10.40
2023-02-22T17:53:43.760Z,10.71
2023-02-22T17:56:13.470Z,9.69
2023-02-22T17:58:30.324Z,9.69
2023-02-22T17:58:41.180Z,10.65
2023-02-22T18:01:21.430Z,9.95
2023-02-22T18:03:30.249Z,9.95
2023-02-22T18:03:47.932Z,10.58
2023-02-22T18:06:22.489Z,10.31
2023-02-22T18:08:30.233Z,10.31
2023-02-22T18:08:55.542Z,10.59
2023-02-22T18:11:26.158Z,10.26
2023-02-22T18:13:30.250Z,10.26
2023-02-22T18:13:56.797Z,10.34
2023-02-22T18:16:25.828Z,10.76
2023-02-22T18:18:30.259Z,10.76
2023-02-22T18:18:53.067Z,10.61
2023-02-22T18:21:19.490Z,10.27
2023-02-22T18:23:30.304Z,10.27
2023-02-22T18:23:45.928Z,9.99
2023-02-22T18:26:17.904Z,10.48
2023-02-22T18:28:30.257Z,10.48
2023-02-22T18:28:44.920Z,10.51
2023-02-22T18:31:14.756Z,10.72
2023-02-22T18:33:30.276Z,10.72
2023-02-22T18:33:43.197Z,10.49
2023-02-22T18:36:12.590Z,10.66
2023-02-22T18:38:30.281Z,10.66
2023-02-22T18:38:43.241Z,10.41
2023-02-22T18:41:16.398Z,10.45
2023-02-22T18:43:30.262Z,10.45
2023-02-22T18:43:43.631Z,10.25
2023-02-22T18:46:11.748Z,10.23
2023-02-22T18:48:30.253Z,10.23
2023-02-22T18:48:38.622Z,9.97
2023-02-22T18:51:09.090Z,9.31
2023-02-22T18:53:30.270Z,9.31
2023-02-22T18:53:36.736Z,9.59
2023-02-22T18:56:05.380Z,10.29
2023-02-22T18:58:30.250Z,10.29
2023-02-22T18:58:32.854Z,9.81
2023-02-22T19:01:00.896Z,9.94
2023-02-22T19:03:27.910Z,9.60
2023-02-22T19:03:30.258Z,9.60
2023-02-22T19:05:54.816Z,10.09
2023-02-22T19:08:21.247Z,9.84
2023-02-22T19:08:30.292Z,9.84
2023-02-22T19:10:49.503Z,9.61
2023-02-22T19:13:16.730Z,9.62
2023-02-22T19:13:30.274Z,9.62
2023-02-22T19:15:43.188Z,9.46
2023-02-22T19:18:09.724Z,9.10
2023-02-22T19:18:30.274Z,9.10
2023-02-22T19:20:36.253Z,9.21
2023-02-22T19:23:03.011Z,9.73
2023-02-22T19:23:34.202Z,9.73
2023-02-22T19:25:29.514Z,9.79
2023-02-22T19:27:56.810Z,8.97
2023-02-22T19:28:30.257Z,8.97
2023-02-22T19:30:24.424Z,9.04
2023-02-22T19:32:51.067Z,9.01
2023-02-22T19:33:30.290Z,9.01
2023-02-22T19:35:26.118Z,9.73
2023-02-22T19:37:55.719Z,9.19
2023-02-22T19:38:30.269Z,9.19
2023-02-22T19:40:23.193Z,9.12
2023-02-22T19:42:54.591Z,9.49
2023-02-22T19:43:30.240Z,9.49
2023-02-22T19:45:22.716Z,9.36
2023-02-22T19:47:54.629Z,9.26
2023-02-22T19:48:30.295Z,9.26
2023-02-22T19:50:21.858Z,9.43
2023-02-22T19:52:48.566Z,9.52
2023-02-22T19:53:30.338Z,9.52
2023-02-22T19:55:15.083Z,9.26
2023-02-22T19:57:50.129Z,9.56
2023-02-22T19:58:30.487Z,9.56
2023-02-22T20:00:24.520Z,9.61
2023-02-22T20:03:05.482Z,9.12
2023-02-22T20:03:30.391Z,9.12
2023-02-22T20:05:33.414Z,8.93
2023-02-22T20:08:00.150Z,8.81
2023-02-22T20:08:30.359Z,8.81
2023-02-22T20:10:26.651Z,9.48
2023-02-22T20:12:53.506Z,9.39
2023-02-22T20:13:30.375Z,9.39
2023-02-22T20:15:21.755Z,9.30
2023-02-22T20:17:50.368Z,9.50
2023-02-22T20:18:30.399Z,9.50
2023-02-22T20:20:17.904Z,9.34
2023-02-22T20:22:45.498Z,8.95
2023-02-22T20:23:30.677Z,8.95
2023-02-22T20:25:13.569Z,9.24
2023-02-22T20:27:40.177Z,8.34
2023-02-22T20:28:30.498Z,8.34
2023-02-22T20:30:09.730Z,9.50
2023-02-22T20:32:37.861Z,9.09
2023-02-22T20:33:30.668Z,9.09
2023-02-22T20:35:05.703Z,8.70
2023-02-22T20:37:34.124Z,9.39
2023-02-22T20:38:30.468Z,9.39
2023-02-22T20:40:00.499Z,9.32
2023-02-22T20:42:27.564Z,9.29
2023-02-22T20:43:30.490Z,9.29
2023-02-22T20:44:54.464Z,9.48
2023-02-22T20:47:20.936Z,9.17
2023-02-22T20:48:30.467Z,9.17
2023-02-22T20:49:47.333Z,9.24
2023-02-22T20:52:13.727Z,9.00
2023-02-22T20:53:30.492Z,9.00
2023-02-22T20:54:40.126Z,9.33
2023-02-22T20:57:07.964Z,8.98
2023-02-22T20:58:30.520Z,8.98
2023-02-22T20:59:34.569Z,9.23
2023-02-22T21:02:00.991Z,8.93
2023-02-22T21:03:30.538Z,8.93
2023-02-22T21:04:32.974Z,8.61
2023-02-22T21:07:03.171Z,8.56
2023-02-22T21:08:30.591Z,8.56
2023-02-22T21:09:29.816Z,9.15
2023-02-22T21:11:56.246Z,8.81
2023-02-22T21:13:30.583Z,8.81
2023-02-22T21:14:24.261Z,9.11
2023-02-22T21:16:51.990Z,9.33
2023-02-22T21:18:30.610Z,9.33
2023-02-22T21:19:26.032Z,9.20
2023-02-22T21:21:58.082Z,9.36
2023-02-22T21:23:30.619Z,9.36
2023-02-22T21:24:27.811Z,9.37
2023-02-22T21:26:55.619Z,9.38
2023-02-22T21:28:49.965Z,9.38
2023-02-22T21:29:22.061Z,9.08
2023-02-22T21:31:48.612Z,9.24
2023-02-22T21:33:30.663Z,9.24
2023-02-22T21:34:17.598Z,8.79
2023-02-22T21:36:45.174Z,9.24
2023-02-22T21:38:30.726Z,9.24
2023-02-22T21:39:18.122Z,9.17
2023-02-22T21:41:50.060Z,8.99
2023-02-22T21:43:30.712Z,8.99
2023-02-22T21:44:18.197Z,8.37
2023-02-22T21:46:44.641Z,8.70
2023-02-22T21:48:30.735Z,8.70
2023-02-22T21:49:11.628Z,8.76
2023-02-22T21:51:38.435Z,8.77
2023-02-22T21:53:30.702Z,8.77
2023-02-22T21:54:08.613Z,9.14
2023-02-22T21:56:38.004Z,8.25
2023-02-22T21:58:30.764Z,8.25
2023-02-22T21:59:07.461Z,8.92
2023-02-22T22:01:36.167Z,9.02
2023-02-22T22:03:30.764Z,9.02
2023-02-22T22:04:04.012Z,8.27
2023-02-22T22:06:34.336Z,9.05
2023-02-22T22:08:30.804Z,9.05